createdAt,value
2018-12-31T00:00:14.942Z,75.40
2018-12-31T00:06:58.436Z,75.30
2018-12-31T00:13:41.849Z,74.40
2018-12-31T00:20:25.266Z,74.10
2018-12-31T00:27:08.678Z,74.10
2018-12-31T00:33:52.089Z,74.30
2018-12-31T00:40:35.511Z,73.90
2018-12-31T00:47:18.953Z,74.50
2018-12-31T00:54:02.368Z,75.50
2018-12-31T01:00:46.026Z,75.60
2018-12-31T01:07:29.446Z,77.00
2018-12-31T01:14:12.858Z,78.60
2018-12-31T01:20:56.270Z,79.10
2018-12-31T01:27:39.689Z,79.80
2018-12-31T01:34:23.109Z,80.80
2018-12-31T01:41:06.534Z,81.40
2018-12-31T01:47:50.001Z,81.90
2018-12-31T01:54:33.442Z,82.40
2018-12-31T02:01:16.877Z,83.10
2018-12-31T02:08:00.307Z,83.60
2018-12-31T02:14:43.729Z,83.80
2018-12-31T02:21:27.189Z,85.40
2018-12-31T02:28:10.641Z,86.30
2018-12-31T02:34:54.074Z,86.90
2018-12-31T02:41:37.512Z,87.20
2018-12-31T02:48:20.950Z,87.60
2018-12-31T02:55:04.430Z,87.50
2018-12-31T03:01:47.866Z,87.70
2018-12-31T03:08:31.306Z,87.70
2018-12-31T03:15:14.741Z,87.70
2018-12-31T03:21:58.158Z,87.90
2018-12-31T03:28:41.582Z,87.90
2018-12-31T03:35:25.013Z,88.20
2018-12-31T03:42:08.468Z,87.80
2018-12-31T03:48:51.906Z,87.50
2018-12-31T03:55:35.328Z,87.60
2018-12-31T04:02:18.745Z,87.50
2018-12-31T04:09:02.194Z,87.40
2018-12-31T04:15:45.642Z,87.40
2018-12-31T04:22:29.062Z,87.40
2018-12-31T04:29:12.517Z,87.30
2018-12-31T04:35:55.941Z,87.40
2018-12-31T04:42:39.368Z,87.90
2018-12-31T04:49:22.794Z,88.00
2018-12-31T04:56:06.258Z,88.10
2018-12-31T05:02:49.690Z,88.30
2018-12-31T05:09:33.156Z,88.50
2018-12-31T05:16:16.593Z,88.80
2018-12-31T05:23:00.014Z,88.90
2018-12-31T05:29:43.442Z,89.10
2018-12-31T05:36:26.857Z,89.10
2018-12-31T05:43:10.293Z,89.10
2018-12-31T05:49:53.869Z,89.20
2018-12-31T05:56:37.285Z,88.80
2018-12-31T06:03:20.721Z,88.20
2018-12-31T06:10:04.211Z,87.50
2018-12-31T06:16:47.640Z,87.10
2018-12-31T06:23:31.062Z,87.00
2018-12-31T06:30:14.482Z,86.90
2018-12-31T06:36:57.910Z,86.90
2018-12-31T06:43:41.337Z,86.70
2018-12-31T06:50:24.794Z,86.90
2018-12-31T06:57:08.222Z,87.00
2018-12-31T07:03:51.680Z,86.70
2018-12-31T07:10:35.112Z,86.90
2018-12-31T07:17:18.541Z,86.80
2018-12-31T07:24:01.970Z,86.60
2018-12-31T07:30:45.422Z,86.60
2018-12-31T07:37:28.845Z,86.40
2018-12-31T07:44:12.306Z,86.90
2018-12-31T07:50:55.757Z,86.80
2018-12-31T07:57:39.205Z,86.60
2018-12-31T08:04:22.661Z,86.40
2018-12-31T08:11:06.114Z,86.70
2018-12-31T08:17:49.598Z,87.00
2018-12-31T08:24:33.055Z,87.10
2018-12-31T08:31:16.508Z,86.40
2018-12-31T08:37:59.969Z,86.10
2018-12-31T08:44:43.429Z,85.30
2018-12-31T08:51:26.878Z,84.90
2018-12-31T08:58:10.353Z,84.50
2018-12-31T09:04:54.317Z,84.50
2018-12-31T09:11:37.853Z,83.90
2018-12-31T09:18:21.313Z,83.40
2018-12-31T09:25:05.022Z,83.10
2018-12-31T09:31:51.280Z,82.60
2018-12-31T09:38:34.771Z,82.70
2018-12-31T09:45:18.234Z,82.50
2018-12-31T09:52:01.710Z,82.80
2018-12-31T09:58:47.164Z,82.80
2018-12-31T10:05:30.608Z,80.90
2018-12-31T10:12:14.049Z,80.20
2018-12-31T10:18:57.484Z,79.40
2018-12-31T10:25:40.945Z,79.10
2018-12-31T10:32:24.382Z,78.90
2018-12-31T10:39:07.881Z,79.10
2018-12-31T10:45:51.317Z,78.60
2018-12-31T10:52:34.753Z,78.50
2018-12-31T10:59:18.213Z,78.30
2018-12-31T11:06:03.645Z,78.40
2018-12-31T11:12:47.081Z,78.80
2018-12-31T11:19:33.569Z,78.50
2018-12-31T11:26:16.139Z,77.10
2018-12-31T11:32:59.574Z,76.80
2018-12-31T11:39:43.021Z,75.10
2018-12-31T11:46:26.469Z,74.20
2018-12-31T11:53:09.937Z,74.60
2018-12-31T11:59:53.413Z,75.10
2018-12-31T12:06:36.936Z,75.40
2018-12-31T12:13:20.370Z,75.50
2018-12-31T12:20:03.826Z,75.00
2018-12-31T12:26:47.351Z,75.60
2018-12-31T12:33:30.834Z,75.80
2018-12-31T12:40:14.273Z,75.60
2018-12-31T12:46:57.714Z,76.40
2018-12-31T12:53:41.181Z,77.90
2018-12-31T13:00:24.625Z,78.20
2018-12-31T13:07:08.070Z,78.20
2018-12-31T13:13:51.526Z,75.80
2018-12-31T13:20:34.969Z,71.60
2018-12-31T13:27:18.421Z,73.00
2018-12-31T13:34:01.877Z,72.10
2018-12-31T13:40:45.325Z,73.30
2018-12-31T13:47:28.773Z,74.30
2018-12-31T13:54:12.281Z,75.00
2018-12-31T14:00:55.732Z,76.70
2018-12-31T14:07:39.181Z,77.00
2018-12-31T14:14:23.090Z,76.70
2018-12-31T14:21:06.542Z,75.90
2018-12-31T14:27:50.032Z,75.80
2018-12-31T14:34:33.485Z,74.40
2018-12-31T14:48:08.742Z,74.30
2018-12-31T14:54:52.201Z,75.30
2018-12-31T15:01:35.965Z,76.20
2018-12-31T15:08:19.405Z,76.80
2018-12-31T15:15:02.851Z,77.00
2018-12-31T15:21:46.294Z,77.30
2018-12-31T15:28:29.869Z,77.60
2018-12-31T15:35:13.298Z,77.70
2018-12-31T15:41:56.775Z,77.30
2018-12-31T15:48:40.257Z,77.60
2018-12-31T15:55:23.701Z,77.80
2018-12-31T16:02:07.149Z,78.10
2018-12-31T16:08:50.593Z,78.30
2018-12-31T16:15:34.041Z,78.50
2018-12-31T16:22:17.499Z,78.80
2018-12-31T16:29:00.982Z,79.10
2018-12-31T16:35:44.440Z,79.00
2018-12-31T16:42:27.889Z,79.10
2018-12-31T16:49:11.341Z,79.50
2018-12-31T16:55:54.798Z,79.80
2018-12-31T17:02:38.282Z,80.50
2018-12-31T17:09:21.737Z,80.50
2018-12-31T17:16:05.188Z,80.80
2018-12-31T17:22:48.690Z,80.60
2018-12-31T17:29:32.189Z,80.10
2018-12-31T17:36:15.661Z,80.40
2018-12-31T17:42:59.114Z,80.20
2018-12-31T17:49:42.597Z,79.90
2018-12-31T17:56:26.063Z,79.80
2018-12-31T18:03:09.549Z,79.80
2018-12-31T18:09:52.993Z,79.90
2018-12-31T18:16:36.533Z,80.50
2018-12-31T18:23:20.833Z,80.50
2018-12-31T18:30:04.708Z,80.30
2018-12-31T18:36:48.150Z,80.20
2018-12-31T18:43:31.599Z,80.50
2018-12-31T18:50:15.090Z,80.30
2018-12-31T18:56:58.555Z,80.50
2018-12-31T19:03:42.009Z,80.60
2018-12-31T19:10:25.443Z,80.80
2018-12-31T19:17:09.954Z,81.00
2018-12-31T19:23:53.401Z,81.40
2018-12-31T19:30:36.841Z,82.10
2018-12-31T19:37:20.362Z,82.30
2018-12-31T19:44:03.801Z,82.40
2018-12-31T19:50:47.273Z,82.80
2018-12-31T19:57:30.781Z,83.50
2018-12-31T20:04:14.218Z,83.80
2018-12-31T20:10:57.673Z,84.50
2018-12-31T20:17:42.851Z,83.90
2018-12-31T20:24:26.315Z,83.80
2018-12-31T20:31:09.769Z,83.80
2018-12-31T20:37:53.233Z,83.90
2018-12-31T20:44:36.684Z,83.60
2018-12-31T20:51:20.150Z,83.80
2018-12-31T20:58:03.958Z,83.90
2018-12-31T21:04:47.409Z,84.20
2018-12-31T21:11:30.906Z,84.20
2018-12-31T21:18:15.277Z,83.70
2018-12-31T21:24:58.752Z,83.90
2018-12-31T21:31:42.239Z,83.60
2018-12-31T21:38:25.676Z,83.80
2018-12-31T21:45:09.130Z,83.50
2018-12-31T21:51:52.585Z,83.60
2018-12-31T21:58:36.041Z,83.10
2018-12-31T22:05:19.774Z,83.60
2018-12-31T22:12:03.254Z,83.70
2018-12-31T22:18:47.617Z,83.50
2018-12-31T22:25:31.057Z,84.10
2018-12-31T22:32:14.493Z,84.10
2018-12-31T22:38:57.933Z,84.50
2018-12-31T22:45:41.372Z,84.30
2018-12-31T22:52:24.824Z,84.00
2018-12-31T22:59:08.271Z,84.00
2018-12-31T23:05:51.731Z,83.90
2018-12-31T23:12:35.189Z,84.10
2018-12-31T23:19:19.609Z,84.20
2018-12-31T23:26:03.093Z,84.10
2018-12-31T23:32:46.560Z,83.90
2018-12-31T23:39:30.017Z,83.40
2018-12-31T23:46:13.469Z,82.80
2018-12-31T23:52:56.939Z,82.70
2018-12-31T23:59:40.405Z,83.00
